KASD

Slidell Airport

Slidell, Louisiana, USA
METAR KASD 170653Z AUTO 11006KT 10SM BKN095 13/10 A3009 RMK AO2 SLP189 T01280100
Observed Flight Rules
Dec-17 @ 06:53 UTC (an hour ago) Visual Flight Rules
Wind Visibility Clouds
110° at 6 knots 10 miles
  • Broken at 9,500' AGL
Temperatures Readings
Current 13°C / 55°F
Dewpoint 10°C / 50°F
Humidity 82%
Altimeter 30.09" Hg
Pressure 1018.9 hPa
Elevation 9
METAR KASD 170653Z AUTO 11006KT 10SM BKN095 13/10 A3009 RMK AO2 SLP189 T01280100
Observed Flight Rules
Dec-17 @ 06:53 UTC
(an hour ago)
VFR
Wind Visibility
110° at 6 knots 10 miles
Clouds
  • Broken at 9,500' AGL
Temperature Dewpoint
13°C / 55°F 10°C / 50°F
Humidity Altimeter Pressure
82% 30.09" Hg 1018.9 hPa